Tiempo atmosférico en la estación meteorológica de Cenicero, La Rioja (429 m.)



Fecha
DESCASC
Temp. máxima en grados centígrados (hora)
DESCASC
Temp. mínima en grados centígrados (hora)
DESCASC
Temp. media en grados centígrados
DESCASC
Racha de viento máxima en m/sg (hora)
DESCASC
Velocidad máxima media en intervalos de 10 minutos(hora)
DESCASC
Precipitaciones diarias en mm
DESCASC
Precipitaciones de 00:00 a 06:00 en mm
DESCASC
Precipitaciones de 06:00 a 12:00 en mm
DESCASC
Precipitaciones de 12:00 a 18:00 en mm
DESCASC
Precipitaciones de 18:00 a 24:00 en mm
DESCASC
31-03-2020 5.6 (23:40) 1.1 (07:20) 3.3 9.72 (17:10) 6.11 (21:50) 2.6 0 0.2 2.4 0
30-03-2020 7.3 (18:20) 3 (09:20) 5.2 9.17 (13:10) 4.72 (01:30) 0 0 0 0 0
29-03-2020 15.1 (14:00) 4.1 (00:00) 9.6 9.17 (18:20) 5.28 (18:10) 0 0 0 0 0
28-03-2020 19.7 (16:40) 1.1 (00:00) 10.4 6.39 (19:40) 3.33 (10:10) 0 0 0 0 0
27-03-2020 14.4 (16:40) 1.5 (00:00) 7.9 6.11 (18:20) 3.33 (18:20) 0 0 0 0 0
26-03-2020 11.6 (14:20) 3.6 (00:00) 7.6 12.5 (15:40) 6.94 (16:10) 0 0 0 0 0
25-03-2020 17.2 (16:20) 5.9 (00:00) 11.6 9.44 (23:00) 5.56 (22:40) 0 0 0 0 0
24-03-2020 16.8 (16:50) 9.5 (00:00) 13.1 8.06 (14:00) 4.44 (10:20) 0 0 0 0 0
23-03-2020 16.1 (15:20) 8.2 (00:00) 12.2 10.28 (17:00) 6.11 (15:20) 1.4 1 0 0 0.4
22-03-2020 17.6 (15:40) 4.9 (07:00) 11.3 7.5 (15:30) 3.61 (15:50) 0 0 0 0 0
21-03-2020 15 (16:30) 7.3 (00:00) 11.2 11.67 (06:30) 6.94 (09:40) 0 0 0 0 0
20-03-2020 14 (16:40) 6.7 (00:00) 10.3 13.06 (08:40) 8.06 (07:50) 0 0 0 0 0
19-03-2020 16.6 (16:00) 9.2 (00:00) 12.9 10.56 (21:10) 6.39 (21:10) 0 0 0 0 0
18-03-2020 14.4 (15:30) 7.7 (00:00) 11 7.78 (17:40) 3.89 (16:00) 0.2 0 0.2 0 0
17-03-2020 11.2 (16:40) 6.8 (00:00) 9 6.39 (17:50) 3.89 (17:30) 5.4 4.8 0.6 0 0
16-03-2020 7.5 (00:00) 2.5 (00:00) 5 9.44 (11:50) 4.72 (05:50) 43.4 13.2 12.6 9 8.6
15-03-2020 17.7 (15:40) 0.9 (00:00) 9.3 12.22 (17:30) 6.94 (17:40) 10 0 0 0 10
14-03-2020 18.7 (16:50) 2 (00:00) 10.4 6.94 (00:40) 4.17 (02:00) 0 0 0 0 0
13-03-2020 12.6 (12:20) 6.6 (23:30) 9.6 6.39 (23:40) 3.61 (23:40) 0 0 0 0 0
12-03-2020 18.9 (14:30) 10.1 (00:00) 14.5 7.5 (15:30) 5 (15:30) 0 0 0 0 0
11-03-2020 23.9 (16:40) 4.5 (00:00) 14.2 3.33 (14:20) 1.94 (11:30) 0 0 0 0 0
10-03-2020 21.4 (17:00) 5 (00:00) 13.2 10 (13:10) 5.56 (13:10) 0 0 0 0 0
09-03-2020 13.6 (16:00) 7.3 (00:00) 10.5 12.5 (11:10) 6.94 (11:00) 0 0 0 0 0
08-03-2020 15.8 (16:30) 1.3 (00:00) 8.6 10 (16:30) 6.11 (18:20) 0 0 0 0 0
07-03-2020 12.2 (13:00) 4.3 (00:00) 8.3 10.28 (05:30) 5.83 (13:40) 1.8 0.8 1 0 0
06-03-2020 7.7 (06:20) 4.2 (00:00) 5.9 20.56 (06:40) 9.17 (16:50) 11.6 0 8.6 1.8 1.2
05-03-2020 16.6 (14:20) 7.2 (00:00) 11.9 22.22 (14:40) 12.78 (13:10) 0.8 0 0.2 0.6 0
04-03-2020 19.3 (14:20) 10 (00:00) 14.6 14.44 (11:20) 8.61 (11:20) 0.6 0.6 0 0 0

Gráficas

Temp. máximas Temp. mínimas Temp. medias Precipitaciones Rachas de viento máximas Velocidades máximas media en intervalos de 10 minutos

Datos horarios

Fecha y hora oficial Temperatura (ºC) Velocidad del viento (km/h) Dirección del viento Racha (km/h) Dirección de racha Precipitación (mm) Presión (hPa) Tendencia (hPa) Humedad (%)
2020-04-02 23:00:00 7.4 15 Oeste 28 Oeste 0 -- -- 70
2020-04-02 22:00:00 8.1 10 Noroeste 22 Noroeste 0 -- -- 71
2020-04-02 21:00:00 9.5 15 Noroeste 32 Noroeste 0 -- -- 62
2020-04-02 20:00:00 11.4 14 Noroeste 31 Noroeste 0 -- -- 56
2020-04-02 19:00:00 12.5 11 Noroeste 24 Noroeste 0 -- -- 63
2020-04-02 18:00:00 12.6 5 Noroeste 19 Este 0 -- -- 64
2020-04-02 17:00:00 12.5 5 Noroeste 13 Oeste 0 -- -- 64
2020-04-02 16:00:00 12.2 12 Noroeste 24 Noroeste 0 -- -- 68
2020-04-02 15:00:00 12.3 8 Sudoeste 15 Sudoeste 0 -- -- 77
2020-04-02 14:00:00 11.4 6 Sudoeste 20 Sudoeste 0 -- -- 83
2020-04-02 13:00:00 10.6 8 Sudoeste 19 Sudoeste 0 -- -- 87
2020-04-02 12:00:00 9.7 6 Sudoeste 18 Sudoeste 0 -- -- 89
2020-04-02 11:00:00 9.4 6 Sudoeste 17 Sudoeste 0 -- -- 90
2020-04-02 10:00:00 8.6 9 Sudoeste 17 Sudoeste 0 -- -- 95
2020-04-02 09:00:00 8 5 Sudoeste 15 Sudoeste 0.2 -- -- 98
2020-04-02 08:00:00 8 4 Oeste 9 Oeste 0 -- -- 98
2020-04-02 07:00:00 8 2 Noroeste 6 Oeste 0.2 -- -- 98
2020-04-02 06:00:00 8 2 Oeste 4 Oeste 0.2 -- -- 97
2020-04-02 05:00:00 8.1 0 Calma 3 Este 0.6 -- -- 97
2020-04-02 04:00:00 8.2 0 Calma 4 Este 0.2 -- -- 97
2020-04-02 03:00:00 8.1 0 Calma 8 Sudeste 0.8 -- -- 96
2020-04-02 02:00:00 8.4 5 Este 15 Este 1.2 -- -- 95
2020-04-02 01:00:00 8.5 8 Este 13 Este 0.4 -- -- 95
2020-04-02 00:00:00 8.5 6 Este 12 Este 0.8 -- -- 94
2020-04-01 23:00:00 8.7 5 Este 16 Este 0.4 -- -- 92
2020-04-01 22:00:00 9 6 Este 19 Este 0 -- -- 90
2020-04-01 21:00:00 9.1 9 Este 19 Este 0 -- -- 88
2020-04-01 20:00:00 9.5 8 Este 25 Este 0 -- -- 88
2020-04-01 19:00:00 10.3 14 Este 30 Este 0 -- -- 83
2020-04-01 18:00:00 10.5 19 Este 31 Este 0 -- -- 80
2020-04-01 17:00:00 11 18 Este 34 Este 0 -- -- 79
2020-04-01 16:00:00 10.6 18 Este 34 Este 0 -- -- 81
2020-04-01 15:00:00 10.3 17 Este 37 Sudeste 0 -- -- 86
2020-04-01 14:00:00 9.9 10 Este 27 Este 0 -- -- 88
2020-04-01 13:00:00 8.4 11 Este 25 Este 0.4 -- -- 91
2020-04-01 12:00:00 7.5 12 Este 34 Este 1 -- -- 94
2020-04-01 11:00:00 7.4 14 Este 24 Este 1.2 -- -- 95
2020-04-01 10:00:00 7.1 9 Este 26 Este 1.2 -- -- 94
2020-04-01 09:00:00 6.9 11 Este 26 Este 2 -- -- 95
2020-04-01 08:00:00 6.8 14 Este 27 Sudeste 0.6 -- -- 95
2020-04-01 07:00:00 6.8 13 Este 35 Este 0.2 -- -- 95
2020-04-01 06:00:00 6.8 22 Este 36 Este 0 -- -- 94
2020-04-01 05:00:00 6.8 17 Este 31 Sudeste 0 -- -- 93
2020-04-01 04:00:00 6.3 17 Este 28 Este 0 -- -- 94
2020-04-01 03:00:00 6.3 15 Este 35 Este 0 -- -- 93
2020-04-01 02:00:00 5.8 18 Este 34 Este 0 -- -- 94
2020-04-01 01:00:00 5.5 15 Este 33 Este 0 -- -- 94
2020-04-01 00:00:00 5.6 10 Este 22 Sudeste 0 -- -- 95
2020-03-31 23:00:00 5.5 11 Este 26 Sudeste 0 -- -- 94
2020-03-31 22:00:00 5.4 16 Este 33 Este 0 -- -- 94
2020-03-31 21:00:00 5.5 16 Este 31 Este 0 -- -- 92
2020-03-31 20:00:00 5.4 21 Este 33 Este 0 -- -- 92
2020-03-31 19:00:00 5.4 19 Este 35 Este 0 -- -- 91
2020-03-31 18:00:00 5.2 19 Este 35 Este 0 -- -- 91
2020-03-31 17:00:00 5.1 16 Este 30 Este 0.2 -- -- 91
2020-03-31 16:00:00 4.5 17 Este 35 Sudeste 0.6 -- -- 91
2020-03-31 15:00:00 4.2 19 Este 34 Este 0.6 -- -- 92
2020-03-31 14:00:00 3.1 17 Este 32 Este 0.8 -- -- 92
2020-03-31 13:00:00 3.1 18 Este 32 Sudeste 0.2 -- -- 91
2020-03-31 12:00:00 2.9 14 Este 30 Este 0.2 -- -- 91
2020-03-31 11:00:00 2.6 11 Este 27 Este 0 -- -- 88
2020-03-31 10:00:00 1.8 11 Este 21 Este 0 -- -- 91
2020-03-31 09:00:00 1.4 10 Este 21 Este 0 -- -- 92
2020-03-31 08:00:00 1.2 6 Este 19 Este 0 -- -- 93
2020-03-31 07:00:00 1.2 9 Este 20 Este 0 -- -- 91
2020-03-31 06:00:00 2.2 12 Este 19 Sudeste 0 -- -- 80
2020-03-31 05:00:00 2.7 4 Este 8 Sudeste 0 -- -- 79
2020-03-31 04:00:00 2.6 2 Este 5 Nordeste 0 -- -- 79
2020-03-31 03:00:00 2.7 0 Calma 5 Oeste 0 -- -- 77
2020-03-31 02:00:00 2.7 4 Oeste 13 Oeste 0 -- -- 77
2020-03-31 01:00:00 3 4 Sudoeste 13 Sudoeste 0 -- -- 78
2020-03-31 00:00:00 3.2 6 Sudoeste 14 Sudoeste 0 -- -- 75
2020-03-30 23:00:00 3.5 4 Oeste 11 Oeste 0 -- -- 71
2020-03-30 22:00:00 3.9 5 Oeste 10 Oeste 0 -- -- 67
2020-03-30 21:00:00 4.4 5 Nordeste 10 Nordeste 0 -- -- 62
2020-03-30 20:00:00 5.1 4 Oeste 15 Norte 0 -- -- 60
2020-03-30 19:00:00 4.6 11 Norte 30 Noroeste 0 -- -- 64
2020-03-30 18:00:00 7 9 Oeste 20 Noroeste 0 -- -- 52
2020-03-30 17:00:00 6.1 10 Noroeste 21 Norte 0 -- -- 55
2020-03-30 16:00:00 6.3 12 Noroeste 24 Noroeste 0 -- -- 52
2020-03-30 15:00:00 6.7 12 Noroeste 21 Noroeste 0 -- -- 47
2020-03-30 14:00:00 5.2 11 Norte 33 Noroeste 0 -- -- 53
2020-03-30 13:00:00 5.4 14 Noroeste 26 Noroeste 0 -- -- 54
2020-03-30 12:00:00 5.8 4 Noroeste 23 Noroeste 0 -- -- 53
2020-03-30 11:00:00 4.7 10 Noroeste 26 Noroeste 0 -- -- 59
2020-03-30 10:00:00 3.7 13 Noroeste 23 Noroeste 0 -- -- 67
2020-03-30 09:00:00 3.1 12 Noroeste 21 Oeste 0 -- -- 71
2020-03-30 08:00:00 3.3 12 Noroeste 20 Noroeste 0 -- -- 67
2020-03-30 07:00:00 3.6 10 Noroeste 20 Noroeste 0 -- -- 69
2020-03-30 06:00:00 3.8 9 Noroeste 19 Noroeste 0 -- -- 69
2020-03-30 05:00:00 4.4 13 Noroeste 30 Noroeste 0 -- -- 67
2020-03-30 04:00:00 4.9 15 Noroeste 29 Norte 0 -- -- 66
2020-03-30 03:00:00 5.2 10 Noroeste 19 Noroeste 0 -- -- 74
2020-03-30 02:00:00 5.4 15 Noroeste 29 Noroeste 0 -- -- 74
2020-03-30 01:00:00 6.2 13 Noroeste 27 Noroeste 0 -- -- 76
2020-03-30 00:00:00 6.9 9 Noroeste 25 Noroeste 0 -- -- 77
2020-03-29 23:00:00 7.9 11 Noroeste 23 Oeste 0 -- -- 78
2020-03-29 22:00:00 8.3 11 Noroeste 21 Oeste 0 -- -- 75
2020-03-29 21:00:00 8.7 13 Noroeste 32 Noroeste 0 -- -- 73
2020-03-29 20:00:00 9.5 16 Noroeste 30 Noroeste 0 -- -- 70
2020-03-29 19:00:00 10.4 14 Noroeste 33 Noroeste 0 -- -- 72
2020-03-29 18:00:00 12.4 17 Noroeste 30 Noroeste 0 -- -- 59
2020-03-29 17:00:00 14.3 13 Norte 29 Noroeste 0 -- -- 46
2020-03-29 16:00:00 15 15 Noroeste 30 Noroeste 0 -- -- 42
2020-03-29 15:00:00 14.9 13 Noroeste 32 Noroeste 0 -- -- 38
2020-03-29 14:00:00 15.1 15 Oeste 28 Oeste 0 -- -- 37
2020-03-29 13:00:00 13.4 16 Oeste 28 Oeste 0 -- -- 42
2020-03-29 12:00:00 11.6 14 Oeste 28 Noroeste 0 -- -- 52
2020-03-29 11:00:00 9.8 16 Oeste 24 Oeste 0 -- -- 59
2020-03-29 10:00:00 8.1 13 Oeste 19 Oeste 0 -- -- 65
2020-03-29 09:00:00 5.5 9 Sudoeste 15 Sudoeste 0 -- -- 73
2020-03-29 08:00:00 4.3 6 Sudoeste 12 Oeste 0 -- -- 78
2020-03-29 07:00:00 4.9 2 Noroeste 11 Sudoeste 0 -- -- 76
2020-03-29 06:00:00 5.6 6 Sudoeste 12 Sudoeste 0 -- -- 74
2020-03-29 05:00:00 6.3 8 Sudoeste 17 Sudoeste 0 -- -- 71
2020-03-29 03:00:00 7.5 8 Sudoeste 14 Sudoeste 0 -- -- 69
2020-03-29 01:00:00 8.1 6 Sudoeste 13 Sudoeste 0 -- -- 66
2020-03-29 00:00:00 9 7 Sudoeste 18 Sudoeste 0 -- -- 63
2020-03-28 23:00:00 9.8 9 Sudoeste 17 Sudoeste 0 -- -- 63
2020-03-28 22:00:00 11 8 Sur 16 Sur 0 -- -- 61
2020-03-28 21:00:00 12.9 3 Sudoeste 17 Nordeste 0 -- -- 51
2020-03-28 20:00:00 14 7 Norte 23 Norte 0 -- -- 49
2020-03-28 19:00:00 16.7 6 Este 13 Sudeste 0 -- -- 35
2020-03-28 18:00:00 18.3 2 Sudoeste 12 Sudeste 0 -- -- 32
2020-03-28 17:00:00 18.8 3 Sudeste 10 Oeste 0 -- -- 31
2020-03-28 16:00:00 18.8 4 Oeste 20 Oeste 0 -- -- 32
2020-03-28 15:00:00 18 6 Sudoeste 15 Noroeste 0 -- -- 32
2020-03-28 14:00:00 16.9 4 Nordeste 15 Sudoeste 0 -- -- 37
2020-03-28 13:00:00 15.2 4 Noroeste 15 Oeste 0 -- -- 42
2020-03-28 12:00:00 13.5 9 Oeste 14 Sudoeste 0 -- -- 45
2020-03-28 11:00:00 10.5 8 Noroeste 19 Oeste 0 -- -- 61
2020-03-28 10:00:00 7.3 10 Oeste 18 Sudoeste 0 -- -- 66
2020-03-28 09:00:00 3.7 2 Norte 8 Noroeste 0 -- -- 81
2020-03-28 08:00:00 1.8 4 Noroeste 9 Oeste 0 -- -- 87
2020-03-28 07:00:00 1.1 2 Noroeste 7 Oeste 0 -- -- 87
2020-03-28 06:00:00 1.5 3 Oeste 7 Oeste 0 -- -- 84
2020-03-28 05:00:00 1.9 0 Calma 3 Noroeste 0 -- -- 83
2020-03-28 04:00:00 2.7 0 Calma 4 Noroeste 0 -- -- 77
2020-03-28 03:00:00 3.2 0 Calma 4 Noroeste 0 -- -- 75
2020-03-28 02:00:00 4.1 0 Calma 4 Sur 0 -- -- 71
2020-03-28 01:00:00 4.6 0 Calma 4 Oeste 0 -- -- 72
2020-03-28 00:00:00 5.5 4 Oeste 8 Sudoeste 0 -- -- 67
2020-03-27 23:00:00 6.3 0 Calma 5 Oeste 0 -- -- 67
2020-03-27 22:00:00 7.7 0 Calma 5 Sur 0 -- -- 62
2020-03-27 21:00:00 9.2 0 Calma 4 Noroeste 0 -- -- 56
2020-03-27 20:00:00 11.1 3 Este 10 Sudeste 0 -- -- 45
2020-03-27 19:00:00 12.5 7 Sudeste 22 Este 0 -- -- 42
2020-03-27 18:00:00 13.5 10 Este 18 Sudeste 0 -- -- 38
2020-03-27 17:00:00 14.4 8 Sudeste 18 Este 0 -- -- 36
2020-03-27 16:00:00 13.9 4 Nordeste 15 Este 0 -- -- 36
2020-03-27 15:00:00 13.6 6 Este 16 Sudeste 0 -- -- 37
2020-03-27 14:00:00 12.6 4 Este 18 Este 0 -- -- 39
2020-03-27 13:00:00 11.7 5 Este 19 Este 0 -- -- 43
2020-03-27 12:00:00 9.9 7 Este 15 Este 0 -- -- 49
2020-03-27 11:00:00 8.7 5 Nordeste 10 Nordeste 0 -- -- 55
2020-03-27 10:00:00 6.4 3 Oeste 10 Noroeste 0 -- -- 65
2020-03-27 09:00:00 3.9 5 Noroeste 10 Noroeste 0 -- -- 80
2020-03-27 08:00:00 2 3 Oeste 6 Oeste 0 -- -- 85
2020-03-27 07:00:00 1.6 4 Noroeste 8 Oeste 0 -- -- 86
2020-03-27 06:00:00 1.5 3 Oeste 7 Oeste 0 -- -- 84
2020-03-27 05:00:00 1.9 3 Oeste 5 Noroeste 0 -- -- 83
2020-03-27 04:00:00 2 0 Calma 6 Sudoeste 0 -- -- 81
2020-03-27 03:00:00 2.8 0 Calma 7 Oeste 0 -- -- 78
2020-03-27 02:00:00 3 4 Sudoeste 9 Sur 0 -- -- 74
2020-03-27 01:00:00 2.9 5 Sur 12 Sur 0 -- -- 73
2020-03-27 00:00:00 3.6 4 Sudoeste 8 Sudoeste 0 -- -- 67
2020-03-26 23:00:00 4.6 5 Oeste 19 Noroeste 0 -- -- 62
2020-03-26 22:00:00 5.9 16 Noroeste 32 Noroeste 0 -- -- 52
2020-03-26 21:00:00 6.6 15 Noroeste 29 Noroeste 0 -- -- 54
2020-03-26 20:00:00 7.2 5 Noroeste 21 Oeste 0 -- -- 52
2020-03-26 19:00:00 8.3 10 Norte 30 Noroeste 0 -- -- 46
2020-03-26 18:00:00 9.2 12 Noroeste 32 Noroeste 0 -- -- 43
2020-03-26 17:00:00 10.3 15 Noroeste 42 Noroeste 0 -- -- 39
2020-03-26 16:00:00 11.3 22 Noroeste 45 Noroeste 0 -- -- 38
2020-03-26 15:00:00 11.3 20 Noroeste 43 Noroeste 0 -- -- 41
2020-03-26 14:00:00 11.4 18 Noroeste 37 Noroeste 0 -- -- 41
2020-03-26 13:00:00 9.9 17 Noroeste 29 Oeste 0 -- -- 55
2020-03-26 12:00:00 8.7 13 Noroeste 32 Noroeste 0 -- -- 61
2020-03-26 11:00:00 9 14 Noroeste 40 Oeste 0 -- -- 53
2020-03-26 10:00:00 7.9 19 Oeste 36 Oeste 0 -- -- 68
2020-03-26 09:00:00 7.1 21 Oeste 36 Oeste 0 -- -- 64
2020-03-26 08:00:00 6.8 20 Oeste 35 Oeste 0 -- -- 66
2020-03-26 07:00:00 5.9 10 Oeste 23 Oeste 0 -- -- 68
2020-03-26 06:00:00 6.2 12 Oeste 21 Oeste 0 -- -- 67
2020-03-26 05:00:00 6.4 9 Noroeste 26 Oeste 0 -- -- 70
2020-03-26 04:00:00 6.6 7 Oeste 18 Sudoeste 0 -- -- 68
2020-03-26 03:00:00 6.4 10 Sudoeste 21 Sudoeste 0 -- -- 68
2020-03-26 02:00:00 6 8 Oeste 22 Oeste 0 -- -- 68
2020-03-26 01:00:00 5.7 8 Sudoeste 22 Oeste 0 -- -- 69
2020-03-26 00:00:00 5.9 14 Noroeste 32 Noroeste 0 -- -- 67
2020-03-25 23:00:00 6.7 20 Noroeste 34 Noroeste 0 -- -- 63
2020-03-25 22:00:00 8.7 12 Oeste 22 Noroeste 0 -- -- 56
2020-03-25 21:00:00 10.1 2 Noroeste 18 Nordeste 0 -- -- 56
2020-03-25 20:00:00 11.6 5 Norte 20 Noroeste 0 -- -- 50
2020-03-25 19:00:00 13.9 12 Norte 28 Norte 0 -- -- 31
2020-03-25 18:00:00 15.9 9 Norte 22 Noroeste 0 -- -- 25
2020-03-25 17:00:00 16.1 5 Este 25 Norte 0 -- -- 47
2020-03-25 16:00:00 16.7 6 Este 20 Este 0 -- -- 49
2020-03-25 15:00:00 16.6 5 Este 14 Noroeste 0 -- -- 48
2020-03-25 14:00:00 14.7 3 Nordeste 13 Sudoeste 0 -- -- 54
2020-03-25 13:00:00 13.3 4 Nordeste 12 Oeste 0 -- -- 65
2020-03-25 12:00:00 12 3 Este 13 Noroeste 0 -- -- 71
2020-03-25 11:00:00 10.1 2 Noroeste 11 Oeste 0 -- -- 78
2020-03-25 10:00:00 9.2 3 Oeste 6 Sudoeste 0 -- -- 84
2020-03-25 09:00:00 7.9 2 Sudeste 6 Sur 0 -- -- 89
2020-03-25 08:00:00 7.6 3 Sur 6 Sur 0 -- -- 90
2020-03-25 07:00:00 7.4 0 Calma 10 Este 0 -- -- 91
2020-03-25 06:00:00 7.6 3 Sudeste 9 Este 0 -- -- 90
2020-03-25 05:00:00 7.7 5 Sudeste 9 Este 0 -- -- 89
2020-03-25 04:00:00 8 4 Este 12 Este 0 -- -- 87
2020-03-25 03:00:00 8.4 2 Este 18 Este 0 -- -- 85
2020-03-25 02:00:00 8.7 3 Oeste 4 Oeste 0 -- -- 84
2020-03-25 01:00:00 9.4 3 Oeste 5 Oeste 0 -- -- 81
2020-03-25 00:00:00 10.5 0 Calma 10 Sur 0 -- -- 74
2020-03-24 23:00:00 12 3 Sur 8 Sudoeste 0 -- -- 70
2020-03-24 22:00:00 12.9 0 Calma 4 Oeste 0 -- -- 68
2020-03-24 21:00:00 13.7 0 Calma 5 Sudeste 0 -- -- 65
2020-03-24 20:00:00 14 0 Calma 4 Sudeste 0 -- -- 62
2020-03-24 19:00:00 15.5 3 Este 10 Este 0 -- -- 50
2020-03-24 18:00:00 16.3 6 Este 20 Este 0 -- -- 49
2020-03-24 17:00:00 16.6 9 Este 21 Este 0 -- -- 47
2020-03-24 16:00:00 16.5 7 Este 22 Este 0 -- -- 47
2020-03-24 15:00:00 15.4 8 Este 23 Este 0 -- -- 55
2020-03-24 14:00:00 14.8 12 Este 29 Nordeste 0 -- -- 62
2020-03-24 13:00:00 14.1 13 Este 25 Este 0 -- -- 66
2020-03-24 12:00:00 13 14 Este 26 Este 0 -- -- 71
2020-03-24 11:00:00 11.6 14 Este 28 Sudeste 0 -- -- 80
2020-03-24 10:00:00 11 14 Este 23 Este 0 -- -- 85
2020-03-24 09:00:00 9.7 6 Este 19 Sudeste 0 -- -- 92
2020-03-24 08:00:00 9.5 10 Este 20 Este 0 -- -- 91
2020-03-24 07:00:00 9.6 7 Este 17 Este 0 -- -- 92
2020-03-24 06:00:00 9.7 8 Este 18 Sudeste 0 -- -- 91
2020-03-24 05:00:00 10 9 Este 21 Este 0 -- -- 90
2020-03-24 04:00:00 10.1 12 Este 19 Este 0 -- -- 90
2020-03-24 03:00:00 10.2 10 Este 22 Este 0 -- -- 90
2020-03-24 02:00:00 10.3 8 Este 18 Este 0 -- -- 89
2020-03-24 01:00:00 10.4 9 Este 20 Este 0 -- -- 87
2020-03-24 00:00:00 10.3 8 Este 19 Este 0 -- -- 88
2020-03-23 23:00:00 10.3 10 Este 18 Este 0 -- -- 87
2020-03-23 22:00:00 10.6 8 Este 23 Este 0.2 -- -- 88
2020-03-23 21:00:00 10.8 8 Este 36 Este 0.2 -- -- 87
2020-03-23 20:00:00 13 16 Este 36 Sudeste 0 -- -- 72
2020-03-23 19:00:00 14.3 14 Este 28 Este 0 -- -- 63
2020-03-23 18:00:00 14.7 17 Este 37 Este 0 -- -- 61
2020-03-23 17:00:00 15.6 20 Este 37 Este 0 -- -- 56
2020-03-23 16:00:00 15.7 14 Este 33 Este 0 -- -- 56
2020-03-23 15:00:00 16 21 Este 31 Este 0 -- -- 55
2020-03-23 14:00:00 14.5 14 Este 26 Este 0 -- -- 62
2020-03-23 13:00:00 14.2 13 Este 26 Este 0 -- -- 65
2020-03-23 12:00:00 13.7 10 Este 22 Nordeste 0 -- -- 68
2020-03-23 11:00:00 12.5 7 Este 16 Este 0 -- -- 80
2020-03-23 10:00:00 11.1 6 Este 9 Este 0 -- -- 89
2020-03-23 09:00:00 9.2 3 Oeste 5 Oeste 0 -- -- 97
2020-03-23 08:00:00 8.4 0 Calma 3 Noroeste 0 -- -- 96
2020-03-23 07:00:00 8.3 0 Calma 3 Norte 0 -- -- 95
2020-03-23 06:00:00 8.5 0 Calma 4 Sudeste 0 -- -- 94
2020-03-23 05:00:00 8.7 2 Nordeste 5 Nordeste 0 -- -- 93
2020-03-23 04:00:00 8.8 3 Nordeste 6 Nordeste 1 -- -- 91
2020-03-23 03:00:00 9 0 Calma 5 Sudoeste 0 -- -- 88
2020-03-23 02:00:00 9.2 4 Oeste 12 Sudoeste 0 -- -- 85
2020-03-23 01:00:00 9.4 4 Sudoeste 16 Sur 0 -- -- 84
2020-03-23 00:00:00 9.5 3 Oeste 13 Sur 0 -- -- 83
2020-03-22 23:00:00 10.4 8 Sur 17 Sur 0 -- -- 77
2020-03-22 22:00:00 11.1 0 Calma 6 Sudoeste 0 -- -- 74
2020-03-22 21:00:00 12.1 0 Calma 6 Este 0 -- -- 67
2020-03-22 20:00:00 13.7 2 Este 15 Este 0 -- -- 58
2020-03-22 19:00:00 15.5 6 Este 15 Este 0 -- -- 50
2020-03-22 18:00:00 16.7 10 Este 17 Este 0 -- -- 44
2020-03-22 17:00:00 17.1 8 Este 26 Sudeste 0 -- -- 46
2020-03-22 16:00:00 17.5 10 Este 27 Este 0 -- -- 48
2020-03-22 15:00:00 17.3 10 Este 19 Sudeste 0 -- -- 47
2020-03-22 14:00:00 16.5 8 Este 15 Este 0 -- -- 51
2020-03-22 13:00:00 15.4 6 Este 13 Este 0 -- -- 55
2020-03-22 12:00:00 13.8 4 Este 11 Nordeste 0 -- -- 59
2020-03-22 11:00:00 11.8 4 Noroeste 8 Oeste 0 -- -- 68
2020-03-22 10:00:00 9.3 3 Oeste 6 Noroeste 0 -- -- 83
2020-03-22 09:00:00 6.6 0 Calma 4 Oeste 0 -- -- 93
2020-03-22 08:00:00 5.1 2 Oeste 5 Oeste 0 -- -- 95
2020-03-22 07:00:00 4.9 3 Sudoeste 5 Sudoeste 0 -- -- 94
2020-03-22 06:00:00 5.5 0 Calma 3 Noroeste 0 -- -- 94
2020-03-22 05:00:00 6 0 Calma 4 Oeste 0 -- -- 93
2020-03-22 04:00:00 6.5 2 Oeste 4 Sur 0 -- -- 90
2020-03-22 03:00:00 7.5 0 Calma 5 Sudeste 0 -- -- 83
2020-03-22 02:00:00 7.9 0 Calma 4 Sudeste 0 -- -- 85
2020-03-22 01:00:00 8.6 0 Calma 5 Nordeste 0 -- -- 84
2020-03-22 00:00:00 9.4 0 Calma 6 Sudoeste 0 -- -- 80
2020-03-21 23:00:00 10.3 4 Este 14 Este 0 -- -- 75
2020-03-21 22:00:00 10.7 6 Sudeste 14 Sudeste 0 -- -- 70
2020-03-21 21:00:00 11.9 7 Este 26 Nordeste 0 -- -- 65
2020-03-21 20:00:00 12.7 14 Este 31 Este 0 -- -- 62
2020-03-21 19:00:00 13.6 19 Este 37 Este 0 -- -- 60
2020-03-21 18:00:00 14.4 24 Este 36 Este 0 -- -- 59
2020-03-21 17:00:00 14.9 22 Este 39 Este 0 -- -- 60
2020-03-21 16:00:00 14.9 21 Este 39 Este 0 -- -- 61
2020-03-21 15:00:00 14.4 19 Este 40 Este 0 -- -- 61
2020-03-21 14:00:00 13.7 22 Este 41 Sudeste 0 -- -- 59
2020-03-21 13:00:00 12.8 19 Este 38 Este 0 -- -- 66
2020-03-21 12:00:00 11.6 18 Este 36 Este 0 -- -- 70
2020-03-21 11:00:00 9.5 17 Este 30 Este 0 -- -- 79
2020-03-21 10:00:00 7.9 14 Este 41 Este 0 -- -- 88
2020-03-21 09:00:00 7.3 23 Este 37 Sudeste 0 -- -- 89
2020-03-21 08:00:00 7.5 22 Este 38 Este 0 -- -- 88
2020-03-21 07:00:00 7.3 21 Este 42 Este 0 -- -- 89
2020-03-21 06:00:00 7.4 21 Este 36 Este 0 -- -- 89
2020-03-21 05:00:00 7.6 17 Este 31 Este 0 -- -- 88
2020-03-21 04:00:00 8 10 Este 41 Este 0 -- -- 87
2020-03-21 03:00:00 8.6 19 Este 33 Este 0 -- -- 86
2020-03-21 02:00:00 9.1 16 Este 31 Sudeste 0 -- -- 84
2020-03-21 01:00:00 9.5 18 Este 36 Este 0 -- -- 82
2020-03-21 00:00:00 10.3 18 Este 35 Este 0 -- -- 79
2020-03-20 23:00:00 10.6 17 Este 32 Este 0 -- -- 79
2020-03-20 22:00:00 11 19 Este 32 Este 0 -- -- 77
2020-03-20 21:00:00 11.7 12 Este 29 Este 0 -- -- 73
2020-03-20 20:00:00 12.3 14 Este 31 Este 0 -- -- 70
2020-03-20 19:00:00 12.9 18 Este 39 Este 0 -- -- 68
2020-03-20 18:00:00 13.6 21 Este 42 Este 0 -- -- 64
2020-03-20 17:00:00 13.7 25 Este 47 Este 0 -- -- 66
2020-03-20 16:00:00 13.7 24 Este 44 Este 0 -- -- 65
2020-03-20 15:00:00 12.5 24 Este 45 Este 0 -- -- 69
2020-03-20 14:00:00 11.7 22 Este 42 Este 0 -- -- 73
2020-03-20 13:00:00 9.9 25 Este 43 Este 0 -- -- 79
2020-03-20 12:00:00 9.2 23 Este 39 Este 0 -- -- 81
2020-03-20 11:00:00 8.1 21 Este 38 Este 0 -- -- 85
2020-03-20 10:00:00 7.4 18 Este 37 Este 0 -- -- 89
2020-03-20 09:00:00 6.7 19 Este 47 Este 0 -- -- 91
2020-03-20 08:00:00 6.8 24 Este 46 Este 0 -- -- 89
2020-03-20 07:00:00 6.9 18 Este 32 Este 0 -- -- 87
2020-03-20 06:00:00 7 12 Este 20 Este 0 -- -- 83
2020-03-20 05:00:00 7.7 8 Sudeste 24 Este 0 -- -- 78
2020-03-20 04:00:00 8.2 21 Este 34 Este 0 -- -- 75
2020-03-20 03:00:00 8.7 18 Este 46 Sudeste 0 -- -- 75
2020-03-20 02:00:00 9.5 19 Este 36 Este 0 -- -- 79
2020-03-20 01:00:00 10 14 Este 29 Sudeste 0 -- -- 77
2020-03-20 00:00:00 10.9 14 Este 34 Este 0 -- -- 79
2020-03-19 23:00:00 11.2 21 Este 38 Este 0 -- -- 77
2020-03-19 22:00:00 11.9 20 Este 38 Este 0 -- -- 70
2020-03-19 21:00:00 12.5 23 Este 35 Este 0 -- -- 67
2020-03-19 20:00:00 13 19 Este 30 Este 0 -- -- 69
2020-03-19 19:00:00 14 17 Este 37 Este 0 -- -- 64
2020-03-19 18:00:00 14.9 17 Este 36 Sudeste 0 -- -- 66
2020-03-19 17:00:00 15.7 16 Este 34 Este 0 -- -- 66
2020-03-19 16:00:00 16.6 18 Este 36 Este 0 -- -- 65
2020-03-19 15:00:00 16.4 20 Este 34 Este 0 -- -- 64
2020-03-19 14:00:00 15.5 17 Este 34 Sudeste 0 -- -- 67
2020-03-19 13:00:00 12.7 17 Este 35 Sudeste 0 -- -- 85
2020-03-19 12:00:00 11.1 21 Este 35 Sudeste 0 -- -- 86
2020-03-19 11:00:00 9.9 12 Este 26 Sudeste 0 -- -- 91
2020-03-19 10:00:00 9.3 8 Este 18 Sudeste 0 -- -- 92
2020-03-19 09:00:00 9.2 6 Sudeste 15 Sudeste 0 -- -- 93
2020-03-19 08:00:00 9.2 5 Sudeste 15 Este 0 -- -- 93
2020-03-19 07:00:00 9.4 5 Este 15 Sudeste 0 -- -- 91
2020-03-19 06:00:00 9.6 4 Este 17 Este 0 -- -- 90
2020-03-19 05:00:00 9.8 5 Sudeste 18 Sudeste 0 -- -- 91
2020-03-19 04:00:00 10.1 9 Sudeste 22 Sudeste 0 -- -- 91
2020-03-19 03:00:00 10.7 9 Este 21 Este 0 -- -- 90
2020-03-19 02:00:00 10.7 8 Este 22 Sudeste 0 -- -- 90
2020-03-19 01:00:00 11.1 9 Sudeste 22 Nordeste 0 -- -- 88
2020-03-19 00:00:00 11.2 10 Este 19 Este 0 -- -- 85
2020-03-18 23:00:00 11.5 9 Este 17 Este 0 -- -- 85
2020-03-18 22:00:00 11.9 4 Este 13 Este 0 -- -- 85
2020-03-18 21:00:00 12.4 7 Este 17 Este 0 -- -- 82
2020-03-18 20:00:00 12.5 5 Sudeste 17 Este 0 -- -- 83
2020-03-18 19:00:00 13 9 Sudeste 23 Este 0 -- -- 83
2020-03-18 18:00:00 13.7 10 Este 28 Este 0 -- -- 76
2020-03-18 17:00:00 14.1 12 Este 24 Este 0 -- -- 73
2020-03-18 16:00:00 14.4 14 Este 27 Este 0 -- -- 73
2020-03-18 15:00:00 14 10 Sudeste 21 Este 0 -- -- 80
2020-03-18 14:00:00 12.8 11 Este 21 Este 0 -- -- 85
2020-03-18 13:00:00 12.5 11 Este 20 Este 0 -- -- 86
2020-03-18 12:00:00 11.5 6 Este 13 Este 0.2 -- -- 89
2020-03-18 11:00:00 10.5 6 Este 13 Este 0 -- -- 92
2020-03-18 10:00:00 8.6 0 Calma 5 Noroeste 0 -- -- 94
2020-03-18 09:00:00 7.9 2 Noroeste 6 Noroeste 0 -- -- 97
2020-03-18 08:00:00 7.8 0 Calma 3 Noroeste 0 -- -- 98
2020-03-18 07:00:00 8 0 Calma 3 Noroeste 0 -- -- 98
2020-03-18 06:00:00 8 0 Calma 3 Noroeste 0 -- -- 98
2020-03-18 05:00:00 8.1 0 Calma 4 Sudeste 0 -- -- 98
2020-03-18 04:00:00 7.9 0 Calma 4 Oeste 0 -- -- 97
2020-03-18 03:00:00 8 2 Sudeste 6 Sudeste 0 -- -- 97
2020-03-18 02:00:00 8.1 0 Calma 4 Noroeste 0 -- -- 97
2020-03-18 01:00:00 8.8 0 Calma 6 Sudeste 0 -- -- 96
2020-03-18 00:00:00 9 4 Sur 10 Sur 0 -- -- 96
2020-03-17 23:00:00 9.1 5 Sudeste 9 Sudeste 0 -- -- 95
2020-03-17 22:00:00 9.7 3 Sudeste 10 Este 0 -- -- 93
2020-03-17 21:00:00 10.1 4 Sudeste 15 Este 0 -- -- 93
2020-03-17 20:00:00 10.5 3 Sudeste 15 Este 0 -- -- 92
2020-03-17 19:00:00 10.7 10 Este 22 Este 0 -- -- 91
2020-03-17 18:00:00 10.9 11 Este 23 Este 0 -- -- 89
2020-03-17 17:00:00 11.2 8 Este 17 Este 0 -- -- 88
2020-03-17 16:00:00 10.7 9 Este 15 Este 0 -- -- 92
2020-03-17 15:00:00 10.1 3 Este 7 Este 0 -- -- 94
2020-03-17 14:00:00 9.3 4 Este 7 Este 0 -- -- 95
2020-03-17 13:00:00 8.9 0 Calma 3 Sudeste 0 -- -- 95
2020-03-17 12:00:00 9 2 Sudeste 7 Sudoeste 0 -- -- 93
2020-03-17 11:00:00 8.7 2 Sudoeste 8 Sudoeste 0 -- -- 95
2020-03-17 10:00:00 8 0 Calma 13 Sudoeste 0 -- -- 96
2020-03-17 09:00:00 7.5 8 Sur 15 Sudoeste 0.2 -- -- 97
2020-03-17 08:00:00 7.4 5 Sudoeste 15 Sudoeste 0.2 -- -- 97
2020-03-17 07:00:00 7.3 5 Sur 13 Sur 0.2 -- -- 96
2020-03-17 06:00:00 7.3 5 Sur 13 Sudoeste 0.4 -- -- 96
2020-03-17 05:00:00 7.2 6 Sur 16 Sur 0 -- -- 95
2020-03-17 04:00:00 7.1 8 Sur 18 Sudoeste 0.2 -- -- 94
2020-03-17 03:00:00 7.2 10 Sudoeste 19 Sudoeste 0.2 -- -- 94
2020-03-17 02:00:00 6.9 6 Sur 17 Sudoeste 1 -- -- 95
2020-03-17 01:00:00 6.8 9 Sur 20 Sudoeste 3 -- -- 95
2020-03-17 00:00:00 6.9 9 Sudoeste 18 Sur 1 -- -- 96
2020-03-16 23:00:00 7 4 Sur 19 Sudoeste 2.6 -- -- 96
2020-03-16 22:00:00 6.8 11 Sudoeste 25 Sudoeste 1.2 -- -- 95
2020-03-16 21:00:00 6.6 10 Sur 20 Sudoeste 1 -- -- 94
2020-03-16 20:00:00 6.4 9 Sur 20 Sudoeste 1.2 -- -- 94
2020-03-16 19:00:00 6 12 Sudoeste 22 Sudoeste 1.6 -- -- 93
2020-03-16 18:00:00 6.1 10 Sudoeste 23 Sudoeste 0.4 -- -- 90
2020-03-16 17:00:00 6 12 Sudoeste 25 Sudoeste 0.2 -- -- 92
2020-03-16 16:00:00 4.7 11 Sudoeste 21 Sudoeste 1.4 -- -- 94
2020-03-16 15:00:00 4.3 12 Sudoeste 23 Sudoeste 2 -- -- 94
2020-03-16 14:00:00 3.4 13 Sudoeste 27 Sudoeste 1.8 -- -- 94
2020-03-16 13:00:00 2.9 12 Sur 31 Sudoeste 3.2 -- -- 94
2020-03-16 12:00:00 2.8 14 Sudoeste 34 Sudoeste 2 -- -- 95
2020-03-16 11:00:00 2.6 14 Sudoeste 26 Sudoeste 1.6 -- -- 95
2020-03-16 10:00:00 2.5 12 Sudoeste 25 Sudoeste 4 -- -- 95
2020-03-16 09:00:00 3.1 11 Sudoeste 22 Sudoeste 1.8 -- -- 94
2020-03-16 08:00:00 2.7 13 Sudoeste 27 Sudoeste 0.8 -- -- 95
2020-03-16 07:00:00 2.5 15 Sudoeste 27 Sudoeste 2.4 -- -- 94
2020-03-16 06:00:00 3.3 16 Sudoeste 33 Sudoeste 1.4 -- -- 92
2020-03-16 05:00:00 4.6 13 Oeste 23 Oeste 1.8 -- -- 92
2020-03-16 04:00:00 5.3 10 Oeste 19 Oeste 2.2 -- -- 92
2020-03-16 03:00:00 5.7 9 Oeste 18 Oeste 1.2 -- -- 92
2020-03-16 02:00:00 6.6 4 Sudoeste 17 Sudoeste 3.4 -- -- 92
2020-03-16 01:00:00 6.8 5 Oeste 17 Oeste 3.2 -- -- 89
2020-03-16 00:00:00 7.5 9 Noroeste 22 Norte 1.6 -- -- 84
2020-03-15 23:00:00 8.9 10 Nordeste 33 Norte 0.8 -- -- 85
2020-03-15 22:00:00 9.7 7 Este 24 Sudoeste 0 -- -- 82
2020-03-15 21:00:00 10.1 3 Este 27 Norte 0.4 -- -- 85
2020-03-15 20:00:00 12.1 8 Oeste 21 Sudeste 4 -- -- 92
2020-03-15 19:00:00 13.1 10 Este 31 Este 3.2 -- -- 85
2020-03-15 18:00:00 14.5 24 Este 44 Este 0 -- -- 71
2020-03-15 17:00:00 16.5 17 Este 36 Este 0 -- -- 56
2020-03-15 16:00:00 17.3 18 Este 35 Este 0 -- -- 50
2020-03-15 15:00:00 17.6 14 Este 32 Este 0 -- -- 46
2020-03-15 14:00:00 15.9 16 Este 40 Este 0 -- -- 48
2020-03-15 13:00:00 13.8 19 Este 36 Sudeste 0 -- -- 55
2020-03-15 12:00:00 11.6 19 Este 33 Sudeste 0 -- -- 64
2020-03-15 11:00:00 10.4 17 Este 30 Sudeste 0 -- -- 68
2020-03-15 10:00:00 8.5 9 Este 18 Este 0 -- -- 74
2020-03-15 09:00:00 5 3 Este 6 Este 0 -- -- 90
2020-03-15 08:00:00 1.1 0 Calma 2 Noroeste 0 -- -- 94
2020-03-15 07:00:00 1.4 0 Calma 3 Sudoeste 0 -- -- 90
2020-03-15 06:00:00 1.9 2 Sudeste 4 Sudeste 0 -- -- 90
2020-03-15 05:00:00 2.1 0 Calma 4 Sudeste 0 -- -- 88
2020-03-15 04:00:00 2.7 0 Calma 3 Sudoeste 0 -- -- 85
2020-03-15 03:00:00 3.5 0 Calma 6 Sudoeste 0 -- -- 80
2020-03-15 02:00:00 4.5 0 Calma 5 Sudoeste 0 -- -- 79
2020-03-15 01:00:00 5.4 2 Oeste 5 Sudoeste 0 -- -- 73
2020-03-15 00:00:00 6.6 0 Calma 4 Sudoeste 0 -- -- 69
2020-03-14 23:00:00 7.8 2 Sudoeste 6 Sudoeste 0 -- -- 64
2020-03-14 22:00:00 9.7 2 Sudeste 9 Sudoeste 0 -- -- 60
2020-03-14 21:00:00 11.3 5 Sudoeste 14 Sudoeste 0 -- -- 53
2020-03-14 20:00:00 13.3 6 Sudoeste 9 Sudoeste 0 -- -- 48
2020-03-14 19:00:00 16.1 4 Sudoeste 12 Oeste 0 -- -- 41
2020-03-14 18:00:00 17.6 8 Oeste 15 Oeste 0 -- -- 34
2020-03-14 17:00:00 18.5 8 Oeste 19 Oeste 0 -- -- 28
2020-03-14 16:00:00 18.3 9 Oeste 17 Oeste 0 -- -- 27
2020-03-14 15:00:00 17.5 10 Oeste 18 Oeste 0 -- -- 29
2020-03-14 14:00:00 15.8 8 Oeste 18 Oeste 0 -- -- 34
2020-03-14 13:00:00 14.6 6 Oeste 16 Oeste 0 -- -- 45
2020-03-14 12:00:00 12.7 10 Sudoeste 18 Oeste 0 -- -- 50
2020-03-14 11:00:00 10.1 11 Noroeste 20 Noroeste 0 -- -- 63
2020-03-14 10:00:00 8.3 12 Oeste 19 Noroeste 0 -- -- 68
2020-03-14 09:00:00 4.6 5 Oeste 12 Oeste 0 -- -- 81
2020-03-14 08:00:00 2 5 Noroeste 13 Noroeste 0 -- -- 89
2020-03-14 07:00:00 2.6 4 Noroeste 10 Noroeste 0 -- -- 88
2020-03-14 06:00:00 2.8 4 Noroeste 15 Sudoeste 0 -- -- 88
2020-03-14 05:00:00 4.9 10 Oeste 24 Sudoeste 0 -- -- 82
2020-03-14 04:00:00 4.8 12 Sudoeste 23 Sudoeste 0 -- -- 82
2020-03-14 03:00:00 5.5 10 Oeste 22 Sudoeste 0 -- -- 78
2020-03-14 02:00:00 6 15 Oeste 24 Oeste 0 -- -- 77
2020-03-14 01:00:00 6.5 12 Oeste 25 Sudoeste 0 -- -- 76
2020-03-14 00:00:00 6.6 11 Oeste 23 Sudoeste 0 -- -- 76
2020-03-13 23:00:00 7.2 11 Sudoeste 19 Sudoeste 0 -- -- 74
2020-03-13 22:00:00 7.7 6 Oeste 15 Sudoeste 0 -- -- 73
2020-03-13 21:00:00 8.9 7 Oeste 14 Sudoeste 0 -- -- 69
2020-03-13 20:00:00 9.9 7 Oeste 15 Oeste 0 -- -- 62
2020-03-13 19:00:00 11.1 10 Oeste 18 Oeste 0 -- -- 59
2020-03-13 18:00:00 11.6 7 Noroeste 13 Noroeste 0 -- -- 62
2020-03-13 17:00:00 11.7 9 Noroeste 19 Norte 0 -- -- 65
2020-03-13 16:00:00 11.8 7 Noroeste 16 Norte 0 -- -- 66
2020-03-13 15:00:00 11.9 9 Norte 22 Norte 0 -- -- 65
2020-03-13 14:00:00 11.9 8 Norte 14 Noroeste 0 -- -- 65
2020-03-13 13:00:00 12 8 Noroeste 15 Oeste 0 -- -- 66
2020-03-13 12:00:00 12.4 4 Oeste 13 Oeste 0 -- -- 64
2020-03-13 11:00:00 11.8 4 Sudoeste 17 Sudoeste 0 -- -- 68
2020-03-13 10:00:00 10.8 3 Nordeste 13 Oeste 0 -- -- 73
2020-03-13 09:00:00 10 6 Noroeste 14 Noroeste 0 -- -- 75
2020-03-13 08:00:00 9.7 5 Sudoeste 14 Sur 0 -- -- 79
2020-03-13 07:00:00 9.8 5 Oeste 18 Noroeste 0 -- -- 77
2020-03-13 06:00:00 9.9 5 Noroeste 12 Noroeste 0 -- -- 78
2020-03-13 05:00:00 10.1 4 Oeste 13 Nordeste 0 -- -- 78
2020-03-13 04:00:00 10.1 5 Noroeste 21 Norte 0 -- -- 79
2020-03-13 03:00:00 10.5 8 Oeste 15 Oeste 0 -- -- 78
2020-03-13 02:00:00 10.6 5 Noroeste 14 Oeste 0 -- -- 79
2020-03-13 01:00:00 10.6 5 Noroeste 17 Oeste 0 -- -- 82
2020-03-13 00:00:00 11.1 9 Oeste 20 Oeste 0 -- -- 80
2020-03-12 23:00:00 11.7 8 Noroeste 21 Oeste 0 -- -- 78
2020-03-12 22:00:00 11.8 9 Oeste 17 Noroeste 0 -- -- 77
2020-03-12 21:00:00 12.1 7 Oeste 13 Noroeste 0 -- -- 76
2020-03-12 20:00:00 12.5 4 Noroeste 19 Oeste 0 -- -- 75
2020-03-12 19:00:00 13.3 9 Noroeste 22 Noroeste 0 -- -- 73
2020-03-12 18:00:00 14.6 12 Noroeste 23 Oeste 0 -- -- 68
2020-03-12 17:00:00 16.2 15 Noroeste 24 Oeste 0 -- -- 62
2020-03-12 16:00:00 17.7 15 Oeste 27 Oeste 0 -- -- 57
2020-03-12 15:00:00 18.6 12 Oeste 23 Oeste 0 -- -- 55
2020-03-12 14:00:00 18.5 12 Oeste 24 Oeste 0 -- -- 55
2020-03-12 13:00:00 17.7 11 Oeste 22 Oeste 0 -- -- 60
2020-03-12 12:00:00 16.5 11 Oeste 23 Sudoeste 0 -- -- 65
2020-03-12 11:00:00 13.8 11 Sudoeste 24 Sudoeste 0 -- -- 75
2020-03-12 10:00:00 12.8 11 Sudoeste 26 Sudoeste 0 -- -- 78
2020-03-12 09:00:00 11.6 14 Sudoeste 24 Sudoeste 0 -- -- 83
2020-03-12 08:00:00 10.8 8 Sudoeste 16 Sudoeste 0 -- -- 85
2020-03-12 07:00:00 10.1 4 Sudoeste 6 Sudoeste 0 -- -- 87
2020-03-12 06:00:00 10.3 2 Oeste 5 Oeste 0 -- -- 85
2020-03-12 05:00:00 10.5 2 Oeste 5 Sudoeste 0 -- -- 84
2020-03-12 04:00:00 10.7 0 Calma 5 Sudoeste 0 -- -- 81
2020-03-12 03:00:00 11.4 3 Sudoeste 7 Sudoeste 0 -- -- 79
2020-03-12 02:00:00 11.6 2 Oeste 6 Noroeste 0 -- -- 81
2020-03-12 01:00:00 12.4 2 Sudoeste 5 Oeste 0 -- -- 76
2020-03-12 00:00:00 13.2 2 Sudoeste 5 Sudoeste 0 -- -- 71
2020-03-11 23:00:00 13.8 0 Calma 6 Sudoeste 0 -- -- 69
2020-03-11 22:00:00 14.7 0 Calma 7 Sudoeste 0 -- -- 63
2020-03-11 21:00:00 15.9 0 Calma 6 Este 0 -- -- 58
2020-03-11 20:00:00 17.9 2 Este 5 Este 0 -- -- 51
2020-03-11 19:00:00 21 0 Calma 6 Este 0 -- -- 40
2020-03-11 18:00:00 22.9 3 Sudeste 10 Sudeste 0 -- -- 33
2020-03-11 17:00:00 23.6 6 Este 10 Este 0 -- -- 31
2020-03-11 16:00:00 23.6 3 Noroeste 8 Oeste 0 -- -- 32
2020-03-11 15:00:00 22.2 3 Noroeste 12 Noroeste 0 -- -- 35
2020-03-11 14:00:00 20.9 5 Oeste 11 Oeste 0 -- -- 36
2020-03-11 13:00:00 18.1 3 Noroeste 9 Noroeste 0 -- -- 47
2020-03-11 12:00:00 14.9 4 Norte 11 Noroeste 0 -- -- 63
2020-03-11 11:00:00 12.5 7 Noroeste 11 Norte 0 -- -- 69
2020-03-11 10:00:00 9 5 Noroeste 9 Noroeste 0 -- -- 80
2020-03-11 09:00:00 6.4 6 Noroeste 9 Oeste 0 -- -- 91
2020-03-11 08:00:00 4.6 3 Oeste 7 Noroeste 0 -- -- 94
2020-03-11 07:00:00 4.8 3 Oeste 7 Oeste 0 -- -- 93
2020-03-11 06:00:00 5.2 5 Oeste 8 Oeste 0 -- -- 92
2020-03-11 05:00:00 5.9 3 Oeste 9 Oeste 0 -- -- 90
2020-03-11 04:00:00 6.4 5 Oeste 10 Oeste 0 -- -- 90
2020-03-11 03:00:00 7.3 3 Oeste 6 Oeste 0 -- -- 89
2020-03-11 02:00:00 8.2 3 Oeste 6 Oeste 0 -- -- 88
2020-03-11 01:00:00 9.1 2 Oeste 6 Sudoeste 0 -- -- 85
2020-03-11 00:00:00 9.9 0 Calma 5 Sudoeste 0 -- -- 81
2020-03-10 23:00:00 11.3 0 Calma 10 Sudoeste 0 -- -- 77
2020-03-10 22:00:00 12.9 0 Calma 7 Sudoeste 0 -- -- 70
2020-03-10 21:00:00 14.3 3 Oeste 8 Noroeste 0 -- -- 65
2020-03-10 20:00:00 16.7 4 Sudoeste 10 Sudoeste 0 -- -- 55
2020-03-10 19:00:00 19.5 4 Sudoeste 15 Oeste 0 -- -- 46
2020-03-10 18:00:00 20.7 9 Noroeste 23 Oeste 0 -- -- 43
2020-03-10 17:00:00 21.4 14 Oeste 29 Oeste 0 -- -- 40
2020-03-10 16:00:00 20.4 20 Noroeste 36 Oeste 0 -- -- 41
2020-03-10 15:00:00 20.3 19 Oeste 35 Noroeste 0 -- -- 42
2020-03-10 14:00:00 19.2 15 Oeste 36 Oeste 0 -- -- 43
2020-03-10 13:00:00 17.7 18 Oeste 31 Oeste 0 -- -- 47
2020-03-10 12:00:00 15.6 11 Oeste 25 Oeste 0 -- -- 51
2020-03-10 11:00:00 13.3 14 Oeste 31 Sudoeste 0 -- -- 57
2020-03-10 10:00:00 10.9 17 Oeste 29 Oeste 0 -- -- 62
2020-03-10 09:00:00 9.2 12 Sudoeste 24 Sudoeste 0 -- -- 65
2020-03-10 08:00:00 8.4 12 Oeste 24 Sudoeste 0 -- -- 67
2020-03-10 07:00:00 7.3 3 Noroeste 20 Oeste 0 -- -- 74
2020-03-10 06:00:00 7.4 8 Oeste 19 Oeste 0 -- -- 72
2020-03-10 05:00:00 7.3 9 Oeste 17 Oeste 0 -- -- 71
2020-03-10 04:00:00 5.7 9 Oeste 17 Oeste 0 -- -- 84
2020-03-10 03:00:00 5.2 5 Noroeste 12 Oeste 0 -- -- 86
2020-03-10 02:00:00 5.6 8 Oeste 13 Oeste 0 -- -- 87
2020-03-10 01:00:00 6.2 4 Noroeste 11 Sudoeste 0 -- -- 84
2020-03-10 00:00:00 7.3 7 Sudoeste 15 Sudoeste 0 -- -- 78
2020-03-09 23:00:00 7.5 7 Sudoeste 14 Sudoeste 0 -- -- 79
2020-03-09 22:00:00 7.9 2 Oeste 14 Oeste 0 -- -- 77
2020-03-09 21:00:00 8.7 4 Noroeste 15 Noroeste 0 -- -- 73
2020-03-09 20:00:00 9.7 8 Noroeste 18 Norte 0 -- -- 68
2020-03-09 19:00:00 10.7 9 Norte 27 Oeste 0 -- -- 62
2020-03-09 18:00:00 12 14 Noroeste 30 Noroeste 0 -- -- 57
2020-03-09 17:00:00 12.7 18 Noroeste 32 Noroeste 0 -- -- 53
2020-03-09 16:00:00 13.6 19 Noroeste 39 Oeste 0 -- -- 50
2020-03-09 15:00:00 12.6 19 Noroeste 39 Noroeste 0 -- -- 54
2020-03-09 14:00:00 12.5 16 Noroeste 35 Oeste 0 -- -- 56
2020-03-09 13:00:00 12.2 22 Oeste 36 Noroeste 0 -- -- 54
2020-03-09 12:00:00 11.5 18 Noroeste 45 Noroeste 0 -- -- 58
2020-03-09 11:00:00 11 25 Oeste 41 Oeste 0 -- -- 61
2020-03-09 10:00:00 10.2 16 Oeste 29 Oeste 0 -- -- 66
2020-03-09 09:00:00 8.6 6 Oeste 17 Oeste 0 -- -- 73
2020-03-09 08:00:00 7.9 10 Noroeste 22 Oeste 0 -- -- 75
2020-03-09 07:00:00 7.9 12 Oeste 22 Oeste 0 -- -- 73
2020-03-09 06:00:00 8.1 12 Oeste 27 Sudoeste 0 -- -- 73
2020-03-09 05:00:00 8.5 10 Oeste 24 Oeste 0 -- -- 75
2020-03-09 04:00:00 9 11 Oeste 18 Oeste 0 -- -- 76
2020-03-09 03:00:00 9.5 9 Oeste 18 Oeste 0 -- -- 76
2020-03-09 02:00:00 9.9 11 Oeste 25 Oeste 0 -- -- 76
2020-03-09 01:00:00 9.9 11 Oeste 17 Oeste 0 -- -- 76
2020-03-09 00:00:00 10.3 4 Noroeste 10 Noroeste 0 -- -- 76
2020-03-08 23:00:00 10.7 4 Noroeste 12 Noroeste 0 -- -- 76
2020-03-08 22:00:00 11 7 Noroeste 27 Noroeste 0 -- -- 75
2020-03-08 21:00:00 12.7 3 Oeste 9 Oeste 0 -- -- 73
2020-03-08 20:00:00 13.4 6 Oeste 12 Oeste 0 -- -- 68
2020-03-08 19:00:00 14 9 Oeste 36 Noroeste 0 -- -- 65
2020-03-08 18:00:00 14.3 16 Noroeste 35 Noroeste 0 -- -- 61
2020-03-08 17:00:00 15.5 15 Noroeste 36 Noroeste 0 -- -- 54
2020-03-08 16:00:00 15.6 15 Noroeste 34 Noroeste 0 -- -- 55
2020-03-08 15:00:00 14.5 17 Noroeste 31 Noroeste 0 -- -- 57
2020-03-08 14:00:00 15.1 16 Noroeste 30 Noroeste 0 -- -- 57
2020-03-08 13:00:00 13.5 11 Oeste 26 Oeste 0 -- -- 66
2020-03-08 12:00:00 11.6 17 Oeste 27 Oeste 0 -- -- 70
2020-03-08 11:00:00 9.4 10 Oeste 25 Oeste 0 -- -- 76
2020-03-08 10:00:00 7.9 16 Oeste 24 Oeste 0 -- -- 80
2020-03-08 09:00:00 4.1 3 Noroeste 8 Oeste 0 -- -- 97
2020-03-08 08:00:00 2.6 3 Noroeste 10 Oeste 0 -- -- 98
2020-03-08 07:00:00 1.5 3 Oeste 6 Sudoeste 0 -- -- 98
2020-03-08 06:00:00 1.5 2 Oeste 11 Oeste 0 -- -- 97
2020-03-08 05:00:00 1.8 5 Oeste 9 Oeste 0 -- -- 97
2020-03-08 04:00:00 2.2 4 Oeste 9 Oeste 0 -- -- 96
2020-03-08 03:00:00 2.4 3 Oeste 5 Oeste 0 -- -- 95
2020-03-08 02:00:00 2.9 5 Oeste 8 Oeste 0 -- -- 94
2020-03-08 01:00:00 3.6 0 Calma 6 Oeste 0 -- -- 94
2020-03-08 00:00:00 4.4 3 Oeste 5 Sudoeste 0 -- -- 93
2020-03-07 23:00:00 5 3 Sudoeste 6 Sudoeste 0 -- -- 90
2020-03-07 22:00:00 6.2 2 Sudoeste 5 Sudoeste 0 -- -- 87
2020-03-07 21:00:00 7.6 0 Calma 5 Este 0 -- -- 82
2020-03-07 20:00:00 8.9 2 Sudeste 6 Sudeste 0 -- -- 78
2020-03-07 19:00:00 10.6 2 Sur 7 Noroeste 0 -- -- 71
2020-03-07 18:00:00 11 4 Norte 13 Noroeste 0 -- -- 69
2020-03-07 17:00:00 10.9 7 Noroeste 30 Noroeste 0 -- -- 67
2020-03-07 16:00:00 11.2 13 Noroeste 31 Noroeste 0 -- -- 71
2020-03-07 15:00:00 10.6 13 Noroeste 27 Oeste 0 -- -- 79
2020-03-07 14:00:00 10.6 17 Oeste 36 Oeste 0 -- -- 78
2020-03-07 13:00:00 12.2 14 Noroeste 27 Oeste 0 -- -- 72
2020-03-07 12:00:00 9.9 15 Oeste 30 Oeste 0.2 -- -- 83
2020-03-07 11:00:00 8.4 15 Oeste 31 Oeste 0.4 -- -- 88
2020-03-07 10:00:00 7.6 15 Oeste 30 Oeste 0.2 -- -- 87
2020-03-07 09:00:00 7.5 17 Oeste 30 Sudoeste 0.2 -- -- 84
2020-03-07 08:00:00 6.7 17 Oeste 27 Oeste 0 -- -- 88
2020-03-07 07:00:00 6.8 14 Oeste 31 Sudoeste 0 -- -- 84
2020-03-07 06:00:00 6.3 15 Oeste 37 Oeste 0.2 -- -- 87
2020-03-07 05:00:00 5.6 17 Oeste 35 Sudoeste 0.2 -- -- 88
2020-03-07 04:00:00 5.5 11 Oeste 27 Oeste 0.2 -- -- 85
2020-03-07 03:00:00 5.6 13 Oeste 25 Sudoeste 0 -- -- 77
2020-03-07 02:00:00 5.2 11 Oeste 29 Oeste 0 -- -- 85
2020-03-07 01:00:00 5.1 12 Oeste 24 Oeste 0.2 -- -- 90
2020-03-07 00:00:00 4.3 6 Oeste 22 Oeste 0 -- -- 94
2020-03-06 23:00:00 4.4 13 Oeste 31 Oeste 0.4 -- -- 91
2020-03-06 22:00:00 4.6 18 Oeste 35 Oeste 0.4 -- -- 88
2020-03-06 21:00:00 4.8 17 Oeste 35 Oeste 0.2 -- -- 85
2020-03-06 20:00:00 5.1 17 Oeste 42 Oeste 0.2 -- -- 83
2020-03-06 19:00:00 5.1 28 Oeste 48 Oeste 0 -- -- 84
2020-03-06 18:00:00 5.8 17 Oeste 46 Noroeste 0 -- -- 81
2020-03-06 17:00:00 6 24 Noroeste 68 Oeste 0.4 -- -- 81
2020-03-06 16:00:00 5.1 27 Noroeste 51 Noroeste 0.6 -- -- 87
2020-03-06 15:00:00 6.4 31 Oeste 54 Noroeste 0.4 -- -- 75
2020-03-06 14:00:00 6.4 26 Oeste 45 Oeste 0 -- -- 76
2020-03-06 13:00:00 6.8 26 Oeste 50 Oeste 0.4 -- -- 80
2020-03-06 12:00:00 5.8 30 Noroeste 54 Noroeste 0 -- -- 79
2020-03-06 11:00:00 5.6 26 Noroeste 52 Noroeste 0.4 -- -- 80
2020-03-06 10:00:00 5.5 30 Noroeste 49 Noroeste 0.2 -- -- 81
2020-03-06 09:00:00 5.4 20 Noroeste 44 Noroeste 0.2 -- -- 82
2020-03-06 08:00:00 4.6 21 Noroeste 48 Oeste 4.6 -- -- 90
2020-03-06 07:00:00 4.6 13 Noroeste 74 Oeste 3.2 -- -- 90
2020-03-06 06:00:00 7.5 19 Oeste 36 Oeste 0 -- -- 74
2020-03-06 05:00:00 7.1 14 Oeste 30 Oeste 0 -- -- 75
2020-03-06 04:00:00 6 11 Oeste 17 Oeste 0 -- -- 80
2020-03-06 03:00:00 5.4 9 Oeste 15 Oeste 0 -- -- 81
2020-03-06 02:00:00 5.1 3 Sudoeste 9 Oeste 0 -- -- 83
2020-03-06 01:00:00 6.4 4 Oeste 20 Oeste 0 -- -- 79
2020-03-06 00:00:00 7.4 11 Sudoeste 26 Sudoeste 0 -- -- 72
2020-03-05 23:00:00 7.2 12 Sudoeste 28 Oeste 0 -- -- 72
2020-03-05 22:00:00 7.5 13 Oeste 28 Oeste 0 -- -- 71
2020-03-05 21:00:00 8.4 16 Oeste 32 Oeste 0 -- -- 65
2020-03-05 20:00:00 9.3 18 Oeste 34 Oeste 0 -- -- 61
2020-03-05 19:00:00 10.5 18 Oeste 36 Oeste 0 -- -- 57
2020-03-05 18:00:00 11.7 16 Noroeste 38 Noroeste 0 -- -- 58
2020-03-05 17:00:00 12.2 20 Noroeste 40 Noroeste 0 -- -- 59
2020-03-05 16:00:00 12 24 Oeste 44 Oeste 0.6 -- -- 70
2020-03-05 15:00:00 12.7 21 Noroeste 80 Oeste 0 -- -- 66
2020-03-05 14:00:00 16.4 36 Oeste 75 Oeste 0 -- -- 38
2020-03-05 13:00:00 15.7 43 Oeste 71 Oeste 0 -- -- 43
2020-03-05 12:00:00 13.5 26 Oeste 63 Oeste 0.2 -- -- 57
2020-03-05 11:00:00 12.7 33 Oeste 72 Oeste 0 -- -- 73
2020-03-05 10:00:00 12 3 Norte 8 Nordeste 0 -- -- 81
2020-03-05 09:00:00 11.8 3 Nordeste 8 Sudeste 0 -- -- 81
2020-03-05 08:00:00 12 0 Calma 7 Este 0 -- -- 79
2020-03-05 07:00:00 12.1 5 Sudeste 13 Sudoeste 0 -- -- 79
2020-03-05 06:00:00 11.6 4 Sur 10 Sudoeste 0 -- -- 80
2020-03-05 05:00:00 11.5 0 Calma 6 Este 0 -- -- 81
2020-03-05 04:00:00 12 3 Oeste 10 Sudoeste 0 -- -- 78
2020-03-05 03:00:00 12.2 4 Sudoeste 11 Sur 0 -- -- 75
2020-03-05 02:00:00 12.2 3 Sudeste 10 Sudoeste 0 -- -- 73
2020-03-05 01:00:00 13.2 4 Sudoeste 12 Oeste 0 -- -- 69
2020-03-05 00:00:00 14.7 4 Oeste 31 Sudoeste 0 -- -- 63
2020-03-04 23:00:00 14.6 8 Oeste 17 Oeste 0 -- -- 64
2020-03-04 22:00:00 14.1 0 Calma 11 Oeste 0 -- -- 64
2020-03-04 21:00:00 15 8 Oeste 14 Oeste 0 -- -- 60
2020-03-04 20:00:00 16.1 9 Oeste 21 Oeste 0 -- -- 55
2020-03-04 19:00:00 17 13 Oeste 33 Oeste 0 -- -- 53
2020-03-04 18:00:00 17.7 17 Oeste 46 Oeste 0 -- -- 51
2020-03-04 17:00:00 18.4 20 Noroeste 48 Noroeste 0 -- -- 51
2020-03-04 16:00:00 18.8 22 Noroeste 45 Noroeste 0 -- -- 49
2020-03-04 15:00:00 19.2 28 Oeste 48 Noroeste 0 -- -- 47
2020-03-04 14:00:00 18.4 27 Noroeste 46 Oeste 0 -- -- 52
2020-03-04 13:00:00 17.6 23 Oeste 48 Oeste 0 -- -- 58
2020-03-04 12:00:00 17 23 Noroeste 52 Oeste 0 -- -- 63
2020-03-04 11:00:00 16.1 26 Oeste 45 Oeste 0 -- -- 65
2020-03-04 10:00:00 14.5 16 Noroeste 30 Noroeste 0 -- -- 77
2020-03-04 09:00:00 12.7 13 Oeste 23 Noroeste 0 -- -- 85
2020-03-04 08:00:00 11.6 11 Oeste 18 Oeste 0 -- -- 89
2020-03-04 07:00:00 10.6 10 Oeste 19 Sudoeste 0 -- -- 89
2020-03-04 06:00:00 10.1 9 Sudoeste 18 Sudoeste 0.4 -- -- 89
2020-03-04 05:00:00 10.1 8 Sudoeste 18 Oeste 0.2 -- -- 84
2020-03-04 04:00:00 10.5 11 Oeste 23 Oeste 0 -- -- 74
2020-03-04 03:00:00 10.2 14 Oeste 23 Oeste 0 -- -- 76
2020-03-04 02:00:00 10.3 9 Oeste 20 Oeste 0 -- -- 76
2020-03-04 01:00:00 10.1 9 Sudoeste 17 Sudoeste 0 -- -- 78
2020-03-04 00:00:00 10.1 8 Oeste 16 Oeste 0 -- -- 76